Time;durP1;ratioP1;P1;durP2;ratioP2;P2;SDS_P1;SDS_P2;PMS_P1;PMS_P2;Temp;Humidity;BMP_temperature;BMP_pressure;BME280_temperature;BME280_humidity;BME280_pressure;Samples;Min_cycle;Max_cycle;Signal;HPM_P1;HPM_P2
2023/09/05 00:02:28;;;;;;;1.67;0.20;;;;;;;;;;4879559;29;20445;-79
2023/09/05 00:05:11;;;;;;;0.10;0.00;;;;;;;;;;4880807;29;20395;-82
2023/09/05 00:08:10;;;;;;;0.10;0.10;;;;;;;;;;4880172;29;20049;-82
2023/09/05 00:10:45;;;;;;;0.17;0.10;;;;;;;;;;4896299;29;20064;-82
2023/09/05 00:13:17;;;;;;;0.35;0.30;;;;;;;;;;4879428;29;20060;-84
2023/09/05 00:15:55;;;;;;;0.40;0.17;;;;;;;;;;4892086;29;20044;-82
2023/09/05 00:18:27;;;;;;;0.88;0.10;;;;;;;;;;4892935;29;20083;-82
2023/09/05 00:21:01;;;;;;;1.05;0.25;;;;;;;;;;4913762;29;20057;-82
2023/09/05 00:24:15;;;;;;;1.55;0.10;;;;;;;;;;4930899;29;20055;-83
2023/09/05 00:26:51;;;;;;;0.03;0.03;;;;;;;;;;4929805;29;20044;-83
2023/09/05 00:30:04;;;;;;;0.40;0.10;;;;;;;;;;4930541;29;20055;-84
2023/09/05 00:32:42;;;;;;;0.60;0.22;;;;;;;;;;4917826;29;20048;-83
2023/09/05 00:35:14;;;;;;;1.20;0.05;;;;;;;;;;4923294;28;20047;-84
2023/09/05 00:37:54;;;;;;;0.10;0.10;;;;;;;;;;4939436;28;20043;-84
2023/09/05 00:40:30;;;;;;;1.67;0.13;;;;;;;;;;4970671;28;20490;-82
2023/09/05 00:43:10;;;;;;;1.13;0.10;;;;;;;;;;4972204;28;20494;-82
2023/09/05 00:45:57;;;;;;;0.38;0.13;;;;;;;;;;4941729;28;20394;-83
2023/09/05 00:48:43;;;;;;;0.20;0.10;;;;;;;;;;4907983;29;20081;-82
2023/09/05 00:51:18;;;;;;;0.30;0.20;;;;;;;;;;4910966;29;20101;-83
2023/09/05 00:53:56;;;;;;;0.52;0.20;;;;;;;;;;4884778;29;20140;-82
2023/09/05 00:56:29;;;;;;;2.17;0.40;;;;;;;;;;4868090;29;20503;-80
2023/09/05 00:59:01;;;;;;;0.28;0.20;;;;;;;;;;4889304;29;20064;-80
2023/09/05 01:01:35;;;;;;;0.08;0.08;;;;;;;;;;4901309;29;20059;-80
2023/09/05 01:04:11;;;;;;;1.92;0.20;;;;;;;;;;4904669;29;20035;-80
2023/09/05 01:06:53;;;;;;;0.30;0.10;;;;;;;;;;4916778;29;20518;-82
2023/09/05 01:10:13;;;;;;;0.10;0.10;;;;;;;;;;4929723;28;20044;-81
2023/09/05 01:12:46;;;;;;;0.30;0.20;;;;;;;;;;4900619;28;20042;-82
2023/09/05 01:15:18;;;;;;;1.30;0.17;;;;;;;;;;4916743;29;20036;-83
2023/09/05 01:17:53;;;;;;;0.10;0.10;;;;;;;;;;4907312;29;20044;-83
2023/09/05 01:20:40;;;;;;;0.15;0.10;;;;;;;;;;4960027;28;20058;-81
2023/09/05 01:23:22;;;;;;;1.13;0.10;;;;;;;;;;4955497;28;20035;-82
2023/09/05 01:25:54;;;;;;;0.65;0.10;;;;;;;;;;4941752;28;20050;-82
2023/09/05 01:28:26;;;;;;;;;;;;;;;;;;4954505;28;20039;-83
2023/09/05 01:31:00;;;;;;;0.03;0.03;;;;;;;;;;4975161;28;19918;-81
2023/09/05 01:33:40;;;;;;;0.00;0.00;;;;;;;;;;4952395;28;20038;-83
2023/09/05 01:36:12;;;;;;;0.82;0.00;;;;;;;;;;4973410;28;20339;-83
2023/09/05 01:38:44;;;;;;;1.35;0.17;;;;;;;;;;4957359;28;20382;-80
2023/09/05 01:41:20;;;;;;;0.22;0.00;;;;;;;;;;4957122;28;20039;-80
2023/09/05 01:43:52;;;;;;;0.40;0.40;;;;;;;;;;4974651;28;20375;-80
2023/09/05 01:46:22;;;;;;;0.00;0.00;;;;;;;;;;4974771;28;20030;-83
2023/09/05 01:48:55;;;;;;;0.10;0.10;;;;;;;;;;4974505;28;20046;-81
2023/09/05 01:51:28;;;;;;;2.45;0.15;;;;;;;;;;4956938;28;20043;-81
2023/09/05 01:53:59;;;;;;;0.10;0.10;;;;;;;;;;4941069;28;20051;-80
2023/09/05 01:56:30;;;;;;;2.15;1.23;;;;;;;;;;4973513;28;20042;-80
2023/09/05 01:59:02;;;;;;;1.08;0.20;;;;;;;;;;4957032;28;20043;-79
2023/09/05 02:01:37;;;;;;;0.60;0.10;;;;;;;;;;4958172;28;20038;-81
2023/09/05 02:04:07;;;;;;;;;;;;;;;;;;4975648;28;20121;-80
2023/09/05 02:06:37;;;;;;;0.10;0.00;;;;;;;;;;4970050;28;19918;-83
2023/09/05 02:09:10;;;;;;;2.90;0.10;;;;;;;;;;4955534;28;20516;-81
2023/09/05 02:11:40;;;;;;;0.10;0.10;;;;;;;;;;4949452;29;20054;-81
2023/09/05 02:14:12;;;;;;;1.48;0.15;;;;;;;;;;4953407;29;20512;-82
2023/09/05 02:16:45;;;;;;;3.40;0.10;;;;;;;;;;4955256;29;20047;-80
2023/09/05 02:19:16;;;;;;;0.10;0.10;;;;;;;;;;4921967;29;20047;-81
2023/09/05 02:21:49;;;;;;;0.30;0.00;;;;;;;;;;4938450;29;20050;-82
2023/09/05 02:24:20;;;;;;;0.17;0.10;;;;;;;;;;4937871;29;20043;-79
2023/09/05 02:26:56;;;;;;;0.10;0.10;;;;;;;;;;4937186;29;20062;-81
2023/09/05 02:29:29;;;;;;;3.38;0.30;;;;;;;;;;4955118;29;20048;-81
2023/09/05 02:32:00;;;;;;;0.32;0.20;;;;;;;;;;4955272;29;20047;-81
2023/09/05 02:34:30;;;;;;;0.63;0.43;;;;;;;;;;4937953;29;20370;-81
2023/09/05 02:37:04;;;;;;;4.03;0.10;;;;;;;;;;4937118;29;20047;-80
2023/09/05 02:39:34;;;;;;;1.55;0.03;;;;;;;;;;4967452;28;20128;-80
2023/09/05 02:42:05;;;;;;;4.60;0.75;;;;;;;;;;4941402;28;20050;-81
2023/09/05 02:44:36;;;;;;;0.60;0.15;;;;;;;;;;4974092;28;20073;-81
2023/09/05 02:47:09;;;;;;;0.65;0.13;;;;;;;;;;4957158;28;20042;-80
2023/09/05 02:49:41;;;;;;;3.60;0.20;;;;;;;;;;4973063;28;20034;-81
2023/09/05 02:52:14;;;;;;;0.30;0.22;;;;;;;;;;4971536;28;20037;-81
2023/09/05 02:54:45;;;;;;;1.60;0.20;;;;;;;;;;4956508;28;20050;-81
2023/09/05 02:57:21;;;;;;;0.43;0.30;;;;;;;;;;4955770;28;20050;-81
2023/09/05 02:59:53;;;;;;;0.63;0.20;;;;;;;;;;4970892;28;20038;-82
2023/09/05 03:02:28;;;;;;;0.40;0.13;;;;;;;;;;4955488;28;20042;-82
2023/09/05 03:04:58;;;;;;;1.50;0.20;;;;;;;;;;4973763;28;20039;-80
2023/09/05 03:07:30;;;;;;;0.88;0.10;;;;;;;;;;4955136;28;20039;-81
2023/09/05 03:10:03;;;;;;;0.30;0.30;;;;;;;;;;4951708;28;20051;-80
2023/09/05 03:12:34;;;;;;;1.15;0.10;;;;;;;;;;4968030;28;20050;-81
2023/09/05 03:15:04;;;;;;;1.77;0.32;;;;;;;;;;4955963;28;20051;-82
2023/09/05 03:17:35;;;;;;;9.73;4.88;;;;;;;;;;4953437;28;20054;-80
2023/09/05 03:20:07;;;;;;;0.93;0.63;;;;;;;;;;4972957;28;20039;-82
2023/09/05 03:22:39;;;;;;;1.60;0.22;;;;;;;;;;4972828;28;20042;-81
2023/09/05 03:25:11;;;;;;;1.20;0.20;;;;;;;;;;4973073;28;20050;-80
2023/09/05 03:27:46;;;;;;;0.20;0.10;;;;;;;;;;4970199;28;20058;-82
2023/09/05 03:30:19;;;;;;;3.25;0.40;;;;;;;;;;4953522;28;20066;-79
2023/09/05 03:32:54;;;;;;;0.20;0.10;;;;;;;;;;4955179;29;20382;-82
2023/09/05 03:35:24;;;;;;;0.20;0.15;;;;;;;;;;4955399;29;20043;-82
2023/09/05 03:37:56;;;;;;;2.83;0.20;;;;;;;;;;4954515;29;20050;-82
2023/09/05 03:40:28;;;;;;;2.05;0.30;;;;;;;;;;4937477;29;20058;-81
2023/09/05 03:43:07;;;;;;;0.80;0.20;;;;;;;;;;4955113;29;20047;-81
2023/09/05 03:45:37;;;;;;;0.43;0.43;;;;;;;;;;4954274;29;20359;-81
2023/09/05 03:48:13;;;;;;;0.90;0.32;;;;;;;;;;4937625;29;20043;-82
2023/09/05 03:50:45;;;;;;;1.63;0.20;;;;;;;;;;4953426;29;20043;-81
2023/09/05 03:53:16;;;;;;;1.15;0.65;;;;;;;;;;4953435;29;20051;-82
2023/09/05 03:55:47;;;;;;;1.15;0.40;;;;;;;;;;4953459;29;20043;-81
2023/09/05 03:58:21;;;;;;;0.40;0.20;;;;;;;;;;4955215;29;20363;-80
2023/09/05 04:00:55;;;;;;;2.65;0.40;;;;;;;;;;4953405;29;20051;-82
2023/09/05 04:03:27;;;;;;;0.30;0.20;;;;;;;;;;4952991;29;20064;-81
2023/09/05 04:06:01;;;;;;;2.55;0.30;;;;;;;;;;4955136;29;20051;-81
2023/09/05 04:08:32;;;;;;;1.60;0.40;;;;;;;;;;4949725;29;20359;-81
2023/09/05 04:11:03;;;;;;;;;;;;;;;;;;4919145;29;20395;-81
2023/09/05 04:13:35;;;;;;;3.40;0.20;;;;;;;;;;4949381;29;19922;-80
2023/09/05 04:16:05;;;;;;;1.58;0.20;;;;;;;;;;4950227;29;20398;-81
2023/09/05 04:18:37;;;;;;;1.02;0.20;;;;;;;;;;4937066;29;20055;-81
2023/09/05 04:21:11;;;;;;;0.35;0.30;;;;;;;;;;4939215;29;20039;-80
2023/09/05 04:23:41;;;;;;;0.90;0.50;;;;;;;;;;4953846;29;20070;-81
2023/09/05 04:26:11;;;;;;;4.78;0.63;;;;;;;;;;4937579;29;20494;-81
2023/09/05 04:28:42;;;;;;;1.23;0.43;;;;;;;;;;4937801;29;20052;-81
2023/09/05 04:31:18;;;;;;;1.20;0.57;;;;;;;;;;4952998;29;20062;-81
2023/09/05 04:33:54;;;;;;;4.95;0.38;;;;;;;;;;4937514;29;20058;-81
2023/09/05 04:36:26;;;;;;;1.77;0.35;;;;;;;;;;4937305;29;20048;-81
2023/09/05 04:38:56;;;;;;;0.82;0.40;;;;;;;;;;4939496;29;20047;-81
2023/09/05 04:41:27;;;;;;;1.58;1.48;;;;;;;;;;4939507;29;20469;-80
2023/09/05 04:43:59;;;;;;;1.83;0.50;;;;;;;;;;4938801;29;20050;-82
2023/09/05 04:46:37;;;;;;;0.65;0.30;;;;;;;;;;4938777;29;20043;-81
2023/09/05 04:49:09;;;;;;;3.05;0.20;;;;;;;;;;4937709;29;20044;-82
2023/09/05 04:51:39;;;;;;;1.42;0.45;;;;;;;;;;4939345;29;20032;-81
2023/09/05 04:54:11;;;;;;;0.50;0.30;;;;;;;;;;4937214;29;20055;-81
2023/09/05 04:56:44;;;;;;;0.75;0.30;;;;;;;;;;4938444;29;20051;-81
2023/09/05 04:59:13;;;;;;;0.13;0.10;;;;;;;;;;4938704;29;20357;-80
2023/09/05 05:01:46;;;;;;;2.15;0.30;;;;;;;;;;4938722;29;20051;-79
2023/09/05 05:04:18;;;;;;;1.45;0.25;;;;;;;;;;4938504;29;20509;-81
2023/09/05 05:06:49;;;;;;;0.40;0.30;;;;;;;;;;4922124;29;20047;-81
2023/09/05 05:09:19;;;;;;;1.05;0.30;;;;;;;;;;4952319;29;20063;-81
2023/09/05 05:11:49;;;;;;;0.85;0.20;;;;;;;;;;4937324;29;20054;-81
2023/09/05 05:14:28;;;;;;;4.75;0.50;;;;;;;;;;4938484;29;20051;-81
2023/09/05 05:17:02;;;;;;;1.00;0.30;;;;;;;;;;4938057;29;20040;-81
2023/09/05 05:19:32;;;;;;;0.47;0.20;;;;;;;;;;4952000;29;20051;-81
2023/09/05 05:22:02;;;;;;;0.82;0.40;;;;;;;;;;4937122;29;20055;-81
2023/09/05 05:24:34;;;;;;;1.85;0.30;;;;;;;;;;4952176;29;20055;-81
2023/09/05 05:27:05;;;;;;;0.55;0.30;;;;;;;;;;4938187;29;20048;-80
2023/09/05 05:29:39;;;;;;;0.68;0.40;;;;;;;;;;4937271;29;20383;-81
2023/09/05 05:32:11;;;;;;;1.60;0.20;;;;;;;;;;4937050;29;20051;-81
2023/09/05 05:34:41;;;;;;;1.75;0.20;;;;;;;;;;4938141;29;20383;-81
2023/09/05 05:37:13;;;;;;;3.13;0.30;;;;;;;;;;4936875;29;20054;-81
2023/09/05 05:39:46;;;;;;;16.48;1.65;;;;;;;;;;4937979;29;20487;-81
2023/09/05 05:42:20;;;;;;;1.02;0.30;;;;;;;;;;4937964;29;20506;-81
2023/09/05 05:44:53;;;;;;;0.93;0.30;;;;;;;;;;4938237;29;20047;-80
2023/09/05 05:47:24;;;;;;;1.60;0.43;;;;;;;;;;4937925;29;20490;-80
2023/09/05 05:49:56;;;;;;;2.20;0.32;;;;;;;;;;4937944;29;20043;-81
2023/09/05 05:52:26;;;;;;;1.27;0.50;;;;;;;;;;4920781;29;20058;-80
2023/09/05 05:54:58;;;;;;;0.60;0.30;;;;;;;;;;4951827;29;20048;-80
2023/09/05 05:57:28;;;;;;;3.13;0.30;;;;;;;;;;4936192;29;20047;-80
2023/09/05 06:00:04;;;;;;;2.15;0.73;;;;;;;;;;4937249;29;20047;-82
2023/09/05 06:02:39;;;;;;;1.48;0.20;;;;;;;;;;4939904;29;20047;-80
2023/09/05 06:05:12;;;;;;;0.80;0.25;;;;;;;;;;4951736;29;20050;-80
2023/09/05 06:07:42;;;;;;;3.60;0.20;;;;;;;;;;4946549;29;20039;-82
2023/09/05 06:10:13;;;;;;;2.83;0.30;;;;;;;;;;4951773;29;20160;-81
2023/09/05 06:12:45;;;;;;;1.10;0.35;;;;;;;;;;4953499;29;20039;-82
2023/09/05 06:15:17;;;;;;;1.17;0.40;;;;;;;;;;4954947;29;20051;-80
2023/09/05 06:17:47;;;;;;;;;;;;;;;;;;4956185;29;20359;-80
2023/09/05 06:20:17;;;;;;;3.55;0.30;;;;;;;;;;4956746;29;19922;-80
2023/09/05 06:22:49;;;;;;;2.00;0.50;;;;;;;;;;4956669;29;20370;-80
2023/09/05 06:25:23;;;;;;;0.63;0.35;;;;;;;;;;4955343;29;20054;-80
2023/09/05 06:27:54;;;;;;;0.55;0.20;;;;;;;;;;4954815;29;20336;-80
2023/09/05 06:30:24;;;;;;;1.35;0.30;;;;;;;;;;4956435;29;20047;-80
2023/09/05 06:32:54;;;;;;;0.52;0.30;;;;;;;;;;4954440;29;20043;-81
2023/09/05 06:35:27;;;;;;;0.57;0.40;;;;;;;;;;4955848;29;20047;-81
2023/09/05 06:38:26;;;;;;;1.30;0.32;;;;;;;;;;4939475;29;20109;-80
2023/09/05 06:40:56;;;;;;;0.80;0.30;;;;;;;;;;4948330;29;20050;-80
2023/09/05 06:43:27;;;;;;;0.90;0.40;;;;;;;;;;4978476;29;20039;-80
2023/09/05 06:46:08;;;;;;;0.82;0.28;;;;;;;;;;4975736;29;20049;-80
2023/09/05 06:48:41;;;;;;;1.85;0.30;;;;;;;;;;4977929;28;20031;-80
2023/09/05 06:51:12;;;;;;;1.02;0.30;;;;;;;;;;4979659;28;20061;-81
2023/09/05 06:53:42;;;;;;;0.47;0.30;;;;;;;;;;4979094;29;20031;-83
2023/09/05 06:56:12;;;;;;;2.85;0.40;;;;;;;;;;4968560;29;20046;-80
2023/09/05 06:58:43;;;;;;;1.15;0.40;;;;;;;;;;4952528;29;20055;-81
2023/09/05 07:01:15;;;;;;;0.75;0.25;;;;;;;;;;4936377;29;20072;-80
2023/09/05 07:03:45;;;;;;;0.80;0.20;;;;;;;;;;4936280;29;20066;-81
2023/09/05 07:06:18;;;;;;;0.57;0.30;;;;;;;;;;4935308;29;20046;-79
2023/09/05 07:08:49;;;;;;;0.60;0.30;;;;;;;;;;4918501;29;20442;-79
2023/09/05 07:11:21;;;;;;;3.33;0.43;;;;;;;;;;4934300;29;20058;-78
2023/09/05 07:13:54;;;;;;;0.82;0.20;;;;;;;;;;4934747;29;20044;-80
2023/09/05 07:16:24;;;;;;;3.30;0.15;;;;;;;;;;4918574;29;20059;-80
2023/09/05 07:18:54;;;;;;;0.55;0.22;;;;;;;;;;4936265;29;20460;-80
2023/09/05 07:21:25;;;;;;;0.38;0.10;;;;;;;;;;4936260;29;20043;-80
2023/09/05 07:23:56;;;;;;;1.40;0.30;;;;;;;;;;4936101;29;20383;-80
2023/09/05 07:26:30;;;;;;;1.75;0.30;;;;;;;;;;4934543;29;20054;-80
2023/09/05 07:29:03;;;;;;;1.13;0.25;;;;;;;;;;4936338;29;20039;-80
2023/09/05 07:31:33;;;;;;;0.52;0.28;;;;;;;;;;4918745;29;20070;-80
2023/09/05 07:34:03;;;;;;;0.50;0.20;;;;;;;;;;4933828;29;20047;-80
2023/09/05 07:36:36;;;;;;;0.70;0.20;;;;;;;;;;4936011;29;20036;-80
2023/09/05 07:39:10;;;;;;;0.30;0.30;;;;;;;;;;4935853;29;20054;-79
2023/09/05 07:41:41;;;;;;;0.40;0.22;;;;;;;;;;4936089;29;20066;-79
2023/09/05 07:44:11;;;;;;;0.40;0.20;;;;;;;;;;4918373;29;20394;-79
2023/09/05 07:46:44;;;;;;;1.67;0.10;;;;;;;;;;4919618;29;20043;-81
2023/09/05 07:49:18;;;;;;;0.75;0.20;;;;;;;;;;4936479;29;20047;-79
2023/09/05 07:51:50;;;;;;;1.50;0.20;;;;;;;;;;4936082;29;20040;-80
2023/09/05 07:54:25;;;;;;;0.30;0.13;;;;;;;;;;4937698;29;20047;-78
2023/09/05 07:56:57;;;;;;;1.27;0.20;;;;;;;;;;4939745;29;20048;-79
2023/09/05 07:59:31;;;;;;;0.77;0.20;;;;;;;;;;4939341;29;20044;-79
2023/09/05 08:02:01;;;;;;;5.28;0.52;;;;;;;;;;4939707;29;20382;-79
2023/09/05 08:04:34;;;;;;;1.52;0.20;;;;;;;;;;4939949;29;20043;-80
2023/09/05 08:07:06;;;;;;;0.40;0.20;;;;;;;;;;4939493;29;20460;-80
2023/09/05 08:09:37;;;;;;;0.55;0.55;;;;;;;;;;4953554;29;20051;-80
2023/09/05 08:12:07;;;;;;;0.30;0.10;;;;;;;;;;4959232;28;20039;-80
2023/09/05 08:14:41;;;;;;;0.20;0.10;;;;;;;;;;4959069;29;20047;-79
2023/09/05 08:17:12;;;;;;;0.55;0.15;;;;;;;;;;4959048;29;20051;-80
2023/09/05 08:19:44;;;;;;;0.45;0.20;;;;;;;;;;4941233;29;20047;-80
2023/09/05 08:22:15;;;;;;;;;;;;;;;;;;4958975;29;20043;-80
2023/09/05 08:24:44;;;;;;;0.70;0.30;;;;;;;;;;4958252;29;19918;-80
2023/09/05 08:27:16;;;;;;;3.25;0.63;;;;;;;;;;4941142;29;20055;-81
2023/09/05 08:29:49;;;;;;;0.90;0.30;;;;;;;;;;4958561;29;20043;-80
2023/09/05 08:32:19;;;;;;;1.83;0.35;;;;;;;;;;4958259;28;20069;-82
2023/09/05 08:34:54;;;;;;;1.23;0.30;;;;;;;;;;4940150;29;20497;-81
2023/09/05 08:37:25;;;;;;;0.77;0.30;;;;;;;;;;4940366;29;20158;-81
2023/09/05 08:39:58;;;;;;;0.98;0.20;;;;;;;;;;4925328;29;20047;-81
2023/09/05 08:42:35;;;;;;;3.25;0.20;;;;;;;;;;4939855;29;20502;-81
2023/09/05 08:45:13;;;;;;;3.63;0.50;;;;;;;;;;4958339;29;20043;-80
2023/09/05 08:47:43;;;;;;;1.88;0.32;;;;;;;;;;4941176;29;20043;-81
2023/09/05 08:50:15;;;;;;;1.00;0.30;;;;;;;;;;4925149;29;20050;-81
2023/09/05 08:52:48;;;;;;;0.82;0.30;;;;;;;;;;4957934;29;20058;-82
2023/09/05 08:55:18;;;;;;;1.15;0.32;;;;;;;;;;4940103;29;20047;-79
2023/09/05 08:57:50;;;;;;;1.00;0.30;;;;;;;;;;4957973;29;20379;-80
2023/09/05 09:00:22;;;;;;;0.38;0.20;;;;;;;;;;4957735;29;20050;-79
2023/09/05 09:02:54;;;;;;;0.90;0.30;;;;;;;;;;4941311;29;20379;-81
2023/09/05 09:05:26;;;;;;;1.02;0.20;;;;;;;;;;4939990;29;20055;-80
2023/09/05 09:07:57;;;;;;;4.20;0.20;;;;;;;;;;4939882;29;20051;-82
2023/09/05 09:10:30;;;;;;;1.83;0.20;;;;;;;;;;4956517;29;20478;-80
2023/09/05 09:13:19;;;;;;;0.63;0.32;;;;;;;;;;4956688;29;20058;-81
2023/09/05 09:15:54;;;;;;;1.60;0.63;;;;;;;;;;4957569;29;20067;-78
2023/09/05 09:18:26;;;;;;;0.50;0.20;;;;;;;;;;4957533;29;20043;-79
2023/09/05 09:21:06;;;;;;;4.38;0.30;;;;;;;;;;4957416;29;20407;-79
2023/09/05 09:23:40;;;;;;;1.15;0.20;;;;;;;;;;4957635;29;20117;-79
2023/09/05 09:26:13;;;;;;;0.75;0.28;;;;;;;;;;4940416;29;20047;-80
2023/09/05 09:28:45;;;;;;;0.60;0.50;;;;;;;;;;4957113;29;20043;-80
2023/09/05 09:31:27;;;;;;;0.68;0.28;;;;;;;;;;4957635;29;20485;-80
2023/09/05 09:33:58;;;;;;;0.73;0.22;;;;;;;;;;4957297;29;20043;-81
2023/09/05 09:36:35;;;;;;;0.73;0.32;;;;;;;;;;4957120;29;20051;-82
2023/09/05 09:39:11;;;;;;;0.98;0.40;;;;;;;;;;4957551;29;20050;-82
2023/09/05 09:41:49;;;;;;;1.05;0.30;;;;;;;;;;4957045;29;20138;-81
2023/09/05 09:44:31;;;;;;;1.00;0.38;;;;;;;;;;4956911;29;20039;-82
2023/09/05 09:47:03;;;;;;;1.70;0.38;;;;;;;;;;4954763;29;20599;-82
2023/09/05 09:49:41;;;;;;;0.65;0.22;;;;;;;;;;4957010;29;20043;-82
2023/09/05 09:52:17;;;;;;;1.55;0.47;;;;;;;;;;4956756;29;20047;-82
2023/09/05 09:54:53;;;;;;;0.77;0.35;;;;;;;;;;4939497;29;20388;-80
2023/09/05 09:57:38;;;;;;;0.40;0.30;;;;;;;;;;4956958;29;20051;-81
2023/09/05 10:00:18;;;;;;;3.53;0.43;;;;;;;;;;4955404;29;20043;-81
2023/09/05 10:02:53;;;;;;;1.27;0.45;;;;;;;;;;4957038;29;20501;-81
2023/09/05 10:05:24;;;;;;;0.43;0.22;;;;;;;;;;4956571;29;20039;-81
2023/09/05 10:07:55;;;;;;;1.15;0.32;;;;;;;;;;4954898;28;20043;-81
2023/09/05 10:10:27;;;;;;;0.85;0.10;;;;;;;;;;4956239;28;20054;-80
2023/09/05 10:12:59;;;;;;;0.98;0.20;;;;;;;;;;4971573;28;20039;-81
2023/09/05 10:15:34;;;;;;;1.23;0.40;;;;;;;;;;4959085;28;20039;-80
2023/09/05 10:18:12;;;;;;;0.50;0.20;;;;;;;;;;4968025;28;20039;-79
2023/09/05 10:20:44;;;;;;;0.60;0.20;;;;;;;;;;4943884;29;20043;-81
2023/09/05 10:23:17;;;;;;;0.20;0.17;;;;;;;;;;4939171;29;20051;-80
2023/09/05 10:25:49;;;;;;;0.98;0.70;;;;;;;;;;4956370;29;20047;-80
2023/09/05 10:28:20;;;;;;;;;;;;;;;;;;4956262;29;20054;-79
2023/09/05 10:30:50;;;;;;;1.20;0.50;;;;;;;;;;4956296;29;19918;-81
2023/09/05 10:33:33;;;;;;;1.83;0.65;;;;;;;;;;4939067;29;20051;-80
2023/09/05 10:36:09;;;;;;;0.63;0.30;;;;;;;;;;4938229;28;20474;-79
2023/09/05 10:38:42;;;;;;;1.08;0.40;;;;;;;;;;4966627;28;20474;-79
2023/09/05 10:41:37;;;;;;;1.77;0.65;;;;;;;;;;4954518;29;20046;-79
2023/09/05 10:44:07;;;;;;;4.30;0.73;;;;;;;;;;4964509;28;20073;-79
2023/09/05 10:46:41;;;;;;;1.92;0.50;;;;;;;;;;4954688;29;20043;-80
2023/09/05 10:49:17;;;;;;;1.08;0.65;;;;;;;;;;4954663;29;20061;-82
2023/09/05 10:52:21;;;;;;;1.92;0.65;;;;;;;;;;4937523;29;20352;-79
2023/09/05 10:54:52;;;;;;;1.67;0.70;;;;;;;;;;4936635;29;20054;-79
2023/09/05 10:57:38;;;;;;;2.05;0.63;;;;;;;;;;4955114;28;20050;-79
2023/09/05 11:00:18;;;;;;;1.23;0.63;;;;;;;;;;4971440;28;20500;-78
2023/09/05 11:02:49;;;;;;;1.50;0.70;;;;;;;;;;4971594;28;20038;-78
2023/09/05 11:05:21;;;;;;;;;;;;;;;;;;4973886;28;20043;-78
2023/09/05 11:07:54;;;;;;;7.07;1.17;;;;;;;;;;4972899;28;19925;-79
2023/09/05 11:10:33;;;;;;;0.75;0.40;;;;;;;;;;4970874;28;20160;-80
2023/09/05 11:13:14;;;;;;;1.52;0.60;;;;;;;;;;4944992;29;20061;-79
2023/09/05 11:15:44;;;;;;;1.35;0.70;;;;;;;;;;4954759;29;20047;-78
2023/09/05 11:18:19;;;;;;;1.58;0.63;;;;;;;;;;4936676;29;20394;-79
2023/09/05 11:20:51;;;;;;;1.77;1.08;;;;;;;;;;4921390;29;20473;-79
2023/09/05 11:23:28;;;;;;;7.15;0.70;;;;;;;;;;4954808;29;20039;-78
2023/09/05 11:26:06;;;;;;;1.50;0.60;;;;;;;;;;4953964;29;20039;-78
2023/09/05 11:28:39;;;;;;;;;;;;;;;;;;4954465;28;20046;-75
2023/09/05 11:31:11;;;;;;;1.10;0.50;;;;;;;;;;4954216;29;19919;-78
2023/09/05 11:33:42;;;;;;;1.48;0.50;;;;;;;;;;4954270;29;20051;-78
2023/09/05 11:36:12;;;;;;;2.47;0.68;;;;;;;;;;4954042;29;20043;-80
2023/09/05 11:38:49;;;;;;;2.75;0.88;;;;;;;;;;4954175;29;20046;-80
2023/09/05 11:41:22;;;;;;;4.20;0.82;;;;;;;;;;4954977;29;20043;-79
2023/09/05 11:43:54;;;;;;;0.93;0.43;;;;;;;;;;4968182;29;20042;-79
2023/09/05 11:46:29;;;;;;;0.80;0.45;;;;;;;;;;4975885;29;20039;-79
2023/09/05 11:48:59;;;;;;;0.90;0.40;;;;;;;;;;4973402;29;20039;-79
2023/09/05 11:51:34;;;;;;;2.63;0.60;;;;;;;;;;4978229;28;20049;-81
2023/09/05 11:54:06;;;;;;;1.05;0.47;;;;;;;;;;4978268;28;20042;-80
2023/09/05 11:56:37;;;;;;;2.13;0.75;;;;;;;;;;4956621;29;20051;-80
2023/09/05 11:59:07;;;;;;;1.67;0.82;;;;;;;;;;4936841;29;20051;-79
2023/09/05 12:01:39;;;;;;;2.20;0.40;;;;;;;;;;4952745;29;20390;-80
2023/09/05 12:04:10;;;;;;;1.02;0.40;;;;;;;;;;4952838;29;20035;-80
2023/09/05 12:06:42;;;;;;;1.17;0.55;;;;;;;;;;4953597;29;20047;-79
2023/09/05 12:09:13;;;;;;;1.80;0.65;;;;;;;;;;4952186;29;20051;-79
2023/09/05 12:11:44;;;;;;;0.80;0.52;;;;;;;;;;4953429;29;20626;-80
2023/09/05 12:14:20;;;;;;;1.05;0.70;;;;;;;;;;4953583;29;20054;-79
2023/09/05 12:16:52;;;;;;;2.33;0.68;;;;;;;;;;4953624;29;20522;-79
2023/09/05 12:19:27;;;;;;;2.60;0.80;;;;;;;;;;4957001;28;20394;-83
2023/09/05 12:22:00;;;;;;;1.00;0.60;;;;;;;;;;4973055;28;20050;-80
2023/09/05 12:24:32;;;;;;;1.65;1.00;;;;;;;;;;4974288;28;20378;-78
2023/09/05 12:27:05;;;;;;;4.15;1.35;;;;;;;;;;4973844;28;20054;-77
2023/09/05 12:29:37;;;;;;;17.58;5.82;;;;;;;;;;4955157;28;20047;-78
2023/09/05 12:32:09;;;;;;;4.95;1.90;;;;;;;;;;4972002;28;20058;-79
2023/09/05 12:34:43;;;;;;;4.97;2.25;;;;;;;;;;4973383;28;20057;-79
2023/09/05 12:37:14;;;;;;;11.48;9.13;;;;;;;;;;4973158;28;20046;-78
2023/09/05 12:39:44;;;;;;;7.60;4.40;;;;;;;;;;4974968;28;20038;-78
2023/09/05 12:42:15;;;;;;;2.53;1.45;;;;;;;;;;4959453;28;20050;-78
2023/09/05 12:44:46;;;;;;;3.28;1.70;;;;;;;;;;4977295;28;20051;-78
2023/09/05 12:47:16;;;;;;;4.13;1.92;;;;;;;;;;4959900;28;20043;-79
2023/09/05 12:49:50;;;;;;;4.10;1.25;;;;;;;;;;4977427;28;20058;-79
2023/09/05 12:52:48;;;;;;;3.60;1.80;;;;;;;;;;4962744;28;20046;-78
2023/09/05 12:55:21;;;;;;;3.78;1.90;;;;;;;;;;4961074;28;20118;-78
2023/09/05 12:57:51;;;;;;;2.10;1.00;;;;;;;;;;4977897;28;20043;-78
2023/09/05 13:00:22;;;;;;;5.18;1.40;;;;;;;;;;4977416;28;20485;-78
2023/09/05 13:02:52;;;;;;;1.50;0.75;;;;;;;;;;4977473;28;20054;-78
2023/09/05 13:05:22;;;;;;;4.47;1.42;;;;;;;;;;4977749;28;20398;-78
2023/09/05 13:07:56;;;;;;;2.67;0.93;;;;;;;;;;4976865;28;20158;-78
2023/09/05 13:10:28;;;;;;;2.20;0.95;;;;;;;;;;4976855;28;20043;-78
2023/09/05 13:13:00;;;;;;;2.55;1.02;;;;;;;;;;4959906;28;20113;-78
2023/09/05 13:15:37;;;;;;;3.30;1.02;;;;;;;;;;4959493;28;20047;-78
2023/09/05 13:18:13;;;;;;;2.17;1.10;;;;;;;;;;4977438;28;20047;-79
2023/09/05 13:20:44;;;;;;;3.75;1.33;;;;;;;;;;4976711;28;20043;-78
2023/09/05 13:23:17;;;;;;;3.28;1.33;;;;;;;;;;4976721;28;20332;-78
2023/09/05 13:25:48;;;;;;;3.05;0.98;;;;;;;;;;4943628;28;20062;-78
2023/09/05 13:28:22;;;;;;;2.20;1.10;;;;;;;;;;4976537;28;20046;-79
2023/09/05 13:30:59;;;;;;;5.07;2.08;;;;;;;;;;4976946;28;20039;-79
2023/09/05 13:33:30;;;;;;;3.20;1.73;;;;;;;;;;4976865;28;20370;-77
2023/09/05 13:36:00;;;;;;;4.53;1.60;;;;;;;;;;4976678;28;20501;-79
2023/09/05 13:38:32;;;;;;;6.32;1.48;;;;;;;;;;4976822;28;20050;-79
2023/09/05 13:41:02;;;;;;;3.35;1.60;;;;;;;;;;4977094;28;20047;-79
2023/09/05 13:43:34;;;;;;;4.07;1.40;;;;;;;;;;4976286;28;20047;-78
2023/09/05 13:46:05;;;;;;;2.90;1.55;;;;;;;;;;4976394;28;20046;-81
2023/09/05 13:48:39;;;;;;;2.45;1.40;;;;;;;;;;4976413;28;20070;-80
2023/09/05 13:51:12;;;;;;;2.05;1.10;;;;;;;;;;4975947;28;20054;-78
2023/09/05 13:53:43;;;;;;;2.67;1.50;;;;;;;;;;4958557;28;20351;-78
2023/09/05 13:56:12;;;;;;;2.92;2.10;;;;;;;;;;4958114;28;20501;-79
2023/09/05 13:58:44;;;;;;;1.88;1.05;;;;;;;;;;4975994;28;20373;-79
2023/09/05 14:01:16;;;;;;;2.50;1.40;;;;;;;;;;4976131;28;20050;-80
2023/09/05 14:03:48;;;;;;;2.97;1.20;;;;;;;;;;4975990;28;20049;-80
2023/09/05 14:06:20;;;;;;;6.20;3.47;;;;;;;;;;4957591;28;20050;-79
2023/09/05 14:08:51;;;;;;;6.03;3.15;;;;;;;;;;4975083;28;20051;-80
2023/09/05 14:11:26;;;;;;;4.55;1.92;;;;;;;;;;4975626;28;20043;-79
2023/09/05 14:14:00;;;;;;;4.00;2.13;;;;;;;;;;4959429;28;20043;-78
2023/09/05 14:16:30;;;;;;;3.15;1.33;;;;;;;;;;4958960;28;20470;-79
2023/09/05 14:19:04;;;;;;;2.35;1.02;;;;;;;;;;4959030;28;20060;-78
2023/09/05 14:21:35;;;;;;;4.57;1.63;;;;;;;;;;4975619;28;20053;-81
2023/09/05 14:24:09;;;;;;;2.80;1.60;;;;;;;;;;4975652;28;20046;-79
2023/09/05 14:26:40;;;;;;;1.70;1.20;;;;;;;;;;4975849;28;20066;-81
2023/09/05 14:29:12;;;;;;;4.60;1.92;;;;;;;;;;4958888;28;20408;-81
2023/09/05 14:31:45;;;;;;;;;;;;;;;;;;4975829;28;20050;-79
2023/09/05 14:34:16;;;;;;;3.92;1.45;;;;;;;;;;4975131;28;20300;-79
2023/09/05 14:36:48;;;;;;;3.55;1.30;;;;;;;;;;4975490;28;20046;-79
2023/09/05 14:39:22;;;;;;;2.33;1.10;;;;;;;;;;4973954;28;20042;-78
2023/09/05 14:41:54;;;;;;;3.20;1.30;;;;;;;;;;4973629;28;20047;-79
2023/09/05 14:44:24;;;;;;;2.53;1.33;;;;;;;;;;4975730;28;20474;-78
2023/09/05 14:46:56;;;;;;;2.65;1.23;;;;;;;;;;4975686;28;20058;-78
2023/09/05 14:49:28;;;;;;;2.65;1.27;;;;;;;;;;4975645;28;20418;-79
2023/09/05 14:52:32;;;;;;;2.10;1.13;;;;;;;;;;4957449;28;20043;-79
2023/09/05 14:55:26;;;;;;;2.83;1.52;;;;;;;;;;4975204;28;20570;-78
2023/09/05 14:57:58;;;;;;;3.00;1.35;;;;;;;;;;4975240;28;20366;-78
2023/09/05 15:00:28;;;;;;;3.90;1.13;;;;;;;;;;4957860;28;20054;-77
2023/09/05 15:02:59;;;;;;;1.92;0.95;;;;;;;;;;4974470;28;20043;-78
2023/09/05 15:05:31;;;;;;;13.52;10.35;;;;;;;;;;4974864;28;20065;-80
2023/09/05 15:08:02;;;;;;;8.88;6.13;;;;;;;;;;4975393;28;20453;-77
2023/09/05 15:10:32;;;;;;;2.65;1.00;;;;;;;;;;4956453;28;20050;-77
2023/09/05 15:13:05;;;;;;;1.70;0.98;;;;;;;;;;4975180;28;20039;-78
2023/09/05 15:15:36;;;;;;;3.63;2.20;;;;;;;;;;4974644;28;20046;-78
2023/09/05 15:18:07;;;;;;;2.72;1.80;;;;;;;;;;4975207;28;20359;-78
2023/09/05 15:20:38;;;;;;;1.92;0.93;;;;;;;;;;4974627;28;20478;-78
2023/09/05 15:23:10;;;;;;;1.70;1.10;;;;;;;;;;4974857;28;20362;-78
2023/09/05 15:25:41;;;;;;;3.75;2.03;;;;;;;;;;4975131;28;20112;-79